Time;durP1;ratioP1;P1;durP2;ratioP2;P2;SDS_P1;SDS_P2;PMS_P1;PMS_P2;Temp;Humidity;BMP_temperature;BMP_pressure;BME280_temperature;BME280_humidity;BME280_pressure;Samples;Min_cycle;Max_cycle;Signal;HPM_P1;HPM_P2
2021/09/18 00:01:45;;;;;;;26.80;16.30;;;;;;;20.57;61.17;98968.91;5082862;28;20028;-71
2021/09/18 00:04:11;;;;;;;27.60;17.38;;;;;;;20.60;61.27;98973.72;5084923;28;20039;-71
2021/09/18 00:06:36;;;;;;;30.15;17.33;;;;;;;20.65;61.02;98972.50;5081471;28;20055;-71
2021/09/18 00:09:02;;;;;;;32.03;17.67;;;;;;;20.68;60.92;98968.00;5073302;28;20028;-71
2021/09/18 00:11:28;;;;;;;28.83;17.20;;;;;;;20.53;61.11;98965.28;5083637;28;20360;-71
2021/09/18 00:13:53;;;;;;;28.92;15.95;;;;;;;20.42;61.49;98961.69;5071565;28;20032;-71
2021/09/18 00:16:19;;;;;;;29.75;15.75;;;;;;;20.45;61.61;98970.19;5089723;28;20107;-71
2021/09/18 00:18:44;;;;;;;30.13;16.15;;;;;;;20.48;61.30;98977.88;5079760;28;20545;-71
2021/09/18 00:21:10;;;;;;;28.40;16.90;;;;;;;20.49;61.46;98981.50;5074590;28;20039;-71
2021/09/18 00:23:35;;;;;;;28.05;16.88;;;;;;;20.25;61.94;98969.88;5076985;28;20025;-71
2021/09/18 00:26:01;;;;;;;27.20;16.00;;;;;;;20.20;62.28;98978.84;5071202;28;20029;-71
2021/09/18 00:28:27;;;;;;;31.05;16.77;;;;;;;20.22;62.37;98981.28;5078752;28;20032;-71
2021/09/18 00:30:52;;;;;;;25.30;15.63;;;;;;;19.99;62.88;98972.03;5084039;28;20485;-71
2021/09/18 00:33:18;;;;;;;27.25;15.43;;;;;;;19.88;63.02;98986.25;5083452;28;20032;-71
2021/09/18 00:35:43;;;;;;;32.55;17.30;;;;;;;19.88;63.40;98985.41;5071009;28;20415;-71
2021/09/18 00:38:09;;;;;;;38.65;17.05;;;;;;;19.84;63.36;98984.63;5077067;28;20032;-71
2021/09/18 00:40:34;;;;;;;27.52;16.50;;;;;;;19.85;63.46;98989.09;5079506;28;20486;-71
2021/09/18 00:43:00;;;;;;;30.20;16.08;;;;;;;19.90;63.03;98989.47;5076433;28;20028;-71
2021/09/18 00:45:25;;;;;;;23.27;16.67;;;;;;;19.99;62.73;98988.25;5071199;28;20060;-71
2021/09/18 00:47:51;;;;;;;27.48;17.52;;;;;;;20.04;62.82;98994.31;5071165;28;20565;-71
2021/09/18 00:50:17;;;;;;;27.08;15.25;;;;;;;20.08;62.48;98987.81;5070945;28;20020;-71
2021/09/18 00:52:42;;;;;;;30.60;17.77;;;;;;;20.08;62.59;98982.13;5070938;28;20050;-71
2021/09/18 00:55:08;;;;;;;23.25;15.63;;;;;;;20.04;62.71;98980.13;5087326;28;20085;-71
2021/09/18 00:57:34;;;;;;;33.95;18.02;;;;;;;20.20;62.08;98970.31;5081558;28;20024;-71
2021/09/18 01:00:03;;;;;;;33.22;15.25;;;;;;;20.33;61.89;98959.28;5084902;28;20054;-71
2021/09/18 01:02:30;;;;;;;35.05;16.30;;;;;;;20.34;61.86;98947.53;5090836;28;20468;-71
2021/09/18 01:04:55;;;;;;;30.10;16.23;;;;;;;20.37;61.91;98953.59;5091096;28;20483;-71
2021/09/18 01:07:22;;;;;;;30.20;16.17;;;;;;;20.30;62.05;98952.44;5071886;28;20035;-71
2021/09/18 01:09:47;;;;;;;32.90;17.10;;;;;;;20.10;62.79;98962.66;5069927;28;20082;-71
2021/09/18 01:12:13;;;;;;;33.75;17.23;;;;;;;20.16;62.61;98963.88;5073603;28;20051;-71
2021/09/18 01:14:47;;;;;;;23.85;16.35;;;;;;;20.19;62.18;98960.97;5086241;28;20135;-71
2021/09/18 01:17:14;;;;;;;31.55;17.20;;;;;;;20.23;62.56;98965.84;5087597;28;20039;-71
2021/09/18 01:19:40;;;;;;;28.75;16.48;;;;;;;20.23;62.57;98975.16;5086983;28;20047;-71
2021/09/18 01:22:07;;;;;;;24.67;15.77;;;;;;;20.38;62.28;98983.59;5094587;28;20020;-71
2021/09/18 01:24:33;;;;;;;35.55;17.17;;;;;;;20.39;62.23;98974.69;5094912;28;20031;-71
2021/09/18 01:26:59;;;;;;;27.48;16.25;;;;;;;20.52;61.92;98969.34;5094860;28;20111;-71
2021/09/18 01:29:24;;;;;;;25.77;16.25;;;;;;;20.48;61.76;98954.34;5094679;28;20051;-71
2021/09/18 01:31:50;;;;;;;32.20;17.30;;;;;;;20.44;62.21;98957.19;5086636;28;20054;-71
2021/09/18 01:34:18;;;;;;;28.23;15.80;;;;;;;20.43;62.17;98960.47;5088309;28;20467;-71
2021/09/18 01:36:44;;;;;;;30.45;16.75;;;;;;;20.45;62.18;98955.19;5072896;28;20402;-71
2021/09/18 01:39:10;;;;;;;24.30;15.70;;;;;;;20.47;62.50;98964.91;5080981;28;20040;-71
2021/09/18 01:41:36;;;;;;;38.55;17.23;;;;;;;20.46;62.23;98963.28;5087734;28;20025;-71
2021/09/18 01:44:03;;;;;;;27.55;17.05;;;;;;;20.48;62.42;98954.34;5074290;28;20028;-71
2021/09/18 01:46:29;;;;;;;23.10;15.95;;;;;;;20.50;62.23;98953.94;5074156;28;20028;-71
2021/09/18 01:48:54;;;;;;;30.00;15.77;;;;;;;20.38;62.59;98958.88;5074239;28;20028;-71
2021/09/18 01:51:20;;;;;;;28.92;16.20;;;;;;;20.47;62.66;98953.53;5087360;28;20111;-71
2021/09/18 01:53:46;;;;;;;33.08;15.07;;;;;;;20.53;61.97;98951.06;5074733;28;20056;-71
2021/09/18 01:56:11;;;;;;;28.73;16.02;;;;;;;20.60;61.96;98953.84;5076669;28;20035;-71
2021/09/18 01:58:37;;;;;;;28.38;15.48;;;;;;;20.49;62.28;98955.94;5076850;28;20028;-71
2021/09/18 02:01:03;;;;;;;29.52;17.05;;;;;;;20.44;62.26;98957.19;5077699;28;20149;-71
2021/09/18 02:03:34;;;;;;;34.70;16.02;;;;;;;20.42;62.32;98951.13;5087986;28;20028;-71
2021/09/18 02:06:00;;;;;;;33.00;16.98;;;;;;;20.25;62.62;98964.19;5074065;28;20081;-71
2021/09/18 02:08:26;;;;;;;29.63;16.77;;;;;;;20.25;62.77;98940.69;5073755;28;20036;-71
2021/09/18 02:10:53;;;;;;;30.40;15.73;;;;;;;20.24;63.03;98942.72;5087889;28;20059;-71
2021/09/18 02:13:19;;;;;;;31.00;16.98;;;;;;;20.24;62.77;98944.75;5084473;28;20119;-71
2021/09/18 02:15:45;;;;;;;31.33;16.38;;;;;;;20.32;62.91;98957.66;5080192;28;20024;-71
2021/09/18 02:18:11;;;;;;;37.90;16.50;;;;;;;20.25;63.06;98952.06;5083695;28;20442;-71
2021/09/18 02:20:39;;;;;;;25.73;15.38;;;;;;;20.30;62.50;98966.63;5077447;28;20067;-71
2021/09/18 02:23:05;;;;;;;30.25;15.55;;;;;;;20.28;62.72;98969.06;5086065;28;20024;-71
2021/09/18 02:25:32;;;;;;;25.42;14.68;;;;;;;20.44;62.11;98974.22;5093558;28;20028;-71
2021/09/18 02:27:57;;;;;;;24.33;16.50;;;;;;;20.37;62.28;98982.81;5085811;28;20104;-71
2021/09/18 02:30:26;;;;;;;37.17;15.93;;;;;;;20.33;62.23;98988.50;5081236;28;20028;-71
2021/09/18 02:32:53;;;;;;;29.05;15.35;;;;;;;20.18;62.66;98986.97;5087878;28;20478;-71
2021/09/18 02:35:20;;;;;;;31.02;15.15;;;;;;;20.24;62.35;98990.97;5083518;28;20065;-71
2021/09/18 02:37:47;;;;;;;26.65;14.63;;;;;;;20.26;62.26;98982.84;5085651;28;20024;-71
2021/09/18 02:40:15;;;;;;;28.70;14.95;;;;;;;20.31;62.23;99001.50;5071165;28;20111;-71
2021/09/18 02:42:45;;;;;;;24.25;15.05;;;;;;;20.35;62.41;99005.13;5078234;28;20035;-70
2021/09/18 02:45:12;;;;;;;27.08;15.20;;;;;;;20.29;62.42;98998.25;5091905;28;20023;-70
2021/09/18 02:47:37;;;;;;;28.80;14.73;;;;;;;20.39;62.17;98997.41;5082810;28;20115;-70
2021/09/18 02:50:05;;;;;;;26.20;13.88;;;;;;;20.41;61.93;98991.31;5071535;28;20478;-70
2021/09/18 02:52:30;;;;;;;28.67;12.02;;;;;;;20.48;61.34;98991.25;5083121;28;20033;-70
2021/09/18 02:54:56;;;;;;;35.88;13.23;;;;;;;20.50;61.28;98994.50;5077945;28;20388;-70
2021/09/18 02:57:21;;;;;;;20.55;10.88;;;;;;;20.47;60.69;98992.47;5071647;28;20023;-70
2021/09/18 02:59:46;;;;;;;23.48;12.40;;;;;;;20.56;60.59;99000.53;5085352;28;20035;-70
2021/09/18 03:02:12;;;;;;;20.30;12.45;;;;;;;20.58;60.79;99007.44;5079527;28;20119;-70
2021/09/18 03:04:37;;;;;;;26.15;12.57;;;;;;;20.53;60.45;99013.56;5091286;28;20024;-70
2021/09/18 03:07:03;;;;;;;20.80;13.40;;;;;;;20.40;60.97;99003.91;5074843;28;20024;-70
2021/09/18 03:09:29;;;;;;;34.22;12.27;;;;;;;20.32;61.28;98992.56;5072774;28;20495;-70
2021/09/18 03:11:54;;;;;;;28.05;13.50;;;;;;;20.39;61.02;98986.03;5086691;28;20008;-70
2021/09/18 03:14:20;;;;;;;22.98;12.35;;;;;;;20.54;60.58;98978.25;5077319;28;20028;-70
2021/09/18 03:16:45;;;;;;;24.85;13.68;;;;;;;20.59;60.52;98980.63;5076803;28;20024;-70
2021/09/18 03:19:11;;;;;;;22.88;11.93;;;;;;;20.48;61.07;98994.09;5087598;28;20024;-70
2021/09/18 03:21:36;;;;;;;24.80;13.95;;;;;;;20.41;61.37;98997.78;5081324;28;20028;-70
2021/09/18 03:24:02;;;;;;;27.63;13.70;;;;;;;20.38;61.08;99003.47;5076676;28;20028;-70
2021/09/18 03:26:27;;;;;;;23.67;12.10;;;;;;;20.37;60.78;98996.19;5084531;28;20024;-70
2021/09/18 03:28:53;;;;;;;23.73;12.45;;;;;;;20.43;60.77;98989.66;5072333;28;20024;-70
2021/09/18 03:31:19;;;;;;;43.55;14.48;;;;;;;20.54;60.12;98991.63;5088971;28;20386;-70
2021/09/18 03:33:44;;;;;;;25.02;10.88;;;;;;;20.47;60.07;98986.81;5083007;28;20034;-70
2021/09/18 03:36:10;;;;;;;23.58;12.55;;;;;;;20.41;60.14;98972.22;5079573;28;20020;-70
2021/09/18 03:38:36;;;;;;;33.28;11.65;;;;;;;20.48;59.91;98977.06;5092312;28;20024;-70
2021/09/18 03:41:01;;;;;;;30.30;11.63;;;;;;;20.58;59.34;98973.34;5077650;28;20021;-70
2021/09/18 03:43:27;;;;;;;28.92;11.50;;;;;;;20.66;59.28;98970.47;5081009;28;20427;-70
2021/09/18 03:45:53;;;;;;;25.33;12.52;;;;;;;20.65;59.03;98966.00;5089843;28;20073;-70
2021/09/18 03:48:19;;;;;;;20.88;11.55;;;;;;;20.64;58.70;98961.56;5090413;28;20035;-70
2021/09/18 03:50:45;;;;;;;21.30;10.45;;;;;;;20.68;58.60;98959.50;5085673;28;20020;-70
2021/09/18 03:53:10;;;;;;;31.80;11.13;;;;;;;20.55;58.85;98959.97;5085182;28;20035;-70
2021/09/18 03:55:36;;;;;;;31.80;11.43;;;;;;;20.55;58.95;98957.13;5085604;28;20070;-70
2021/09/18 03:58:02;;;;;;;28.55;9.68;;;;;;;20.58;58.66;98959.16;5084560;28;20024;-70
2021/09/18 04:00:27;;;;;;;32.45;10.23;;;;;;;20.46;59.07;98951.94;5084506;28;20448;-70
2021/09/18 04:02:53;;;;;;;33.97;10.50;;;;;;;20.55;59.04;98945.78;5087026;28;20036;-70
2021/09/18 04:05:18;;;;;;;57.42;11.82;;;;;;;20.53;59.16;98939.72;5089394;28;20024;-70
2021/09/18 04:07:44;;;;;;;25.83;9.82;;;;;;;20.53;59.46;98941.72;5088441;28;20024;-70
2021/09/18 04:10:10;;;;;;;30.83;10.02;;;;;;;20.47;59.10;98941.38;5090927;28;20051;-70
2021/09/18 04:12:36;;;;;;;27.50;10.75;;;;;;;20.40;59.39;98947.09;5091766;28;20027;-70
2021/09/18 04:15:01;;;;;;;44.20;10.55;;;;;;;20.38;59.51;98933.31;5087122;28;20025;-70
2021/09/18 04:17:27;;;;;;;72.07;13.98;;;;;;;20.29;60.01;98930.94;5085371;28;20745;-70
2021/09/18 04:19:52;;;;;;;35.80;12.65;;;;;;;20.38;59.69;98936.16;5089831;28;20024;-70
2021/09/18 04:22:18;;;;;;;46.58;10.85;;;;;;;20.39;59.71;98943.44;5086731;28;20020;-70
2021/09/18 04:24:44;;;;;;;69.20;16.85;;;;;;;20.37;59.85;98942.22;5086637;28;20536;-70
2021/09/18 04:27:09;;;;;;;38.30;12.52;;;;;;;20.16;60.62;98938.31;5086804;28;20039;-70
2021/09/18 04:29:35;;;;;;;36.70;12.75;;;;;;;19.99;61.12;98929.47;5086601;28;20027;-70
2021/09/18 04:32:00;;;;;;;35.38;11.32;;;;;;;20.12;60.99;98937.50;5086011;28;20020;-70
2021/09/18 04:34:26;;;;;;;37.13;12.77;;;;;;;20.23;60.69;98948.81;5086432;28;20081;-70
2021/09/18 04:36:51;;;;;;;24.98;11.25;;;;;;;20.20;60.70;98961.81;5083436;28;20024;-70
2021/09/18 04:39:18;;;;;;;29.48;11.88;;;;;;;20.27;60.03;98960.97;5084714;28;20031;-70
2021/09/18 04:41:44;;;;;;;20.00;10.82;;;;;;;20.37;59.95;98947.91;5084788;28;20043;-70
2021/09/18 04:44:10;;;;;;;41.53;11.27;;;;;;;20.41;60.06;98948.72;5085867;28;21671;-70
2021/09/18 04:46:35;;;;;;;22.80;10.93;;;;;;;20.46;60.15;98951.94;5085616;28;20028;-70
2021/09/18 04:49:01;;;;;;;24.63;10.25;;;;;;;20.53;59.98;98965.28;5084609;28;20498;-71
2021/09/18 04:51:26;;;;;;;19.23;9.35;;;;;;;20.65;58.98;98963.19;5084382;28;20322;-72
2021/09/18 04:53:52;;;;;;;46.53;17.13;;;;;;;20.71;59.96;98961.50;5084881;28;20020;-72
2021/09/18 04:56:17;;;;;;;38.47;14.80;;;;;;;20.69;59.92;98966.78;5083897;28;20148;-71
2021/09/18 04:58:45;;;;;;;39.30;17.50;;;;;;;20.65;60.21;98961.13;5082892;28;20026;-72
2021/09/18 05:01:10;;;;;;;47.17;28.80;;;;;;;20.71;60.16;98956.63;5081840;28;20044;-71
2021/09/18 05:03:36;;;;;;;45.83;23.85;;;;;;;20.78;59.96;98952.94;5084548;28;20055;-71
2021/09/18 05:06:01;;;;;;;52.60;28.65;;;;;;;20.83;59.64;98954.56;5078242;28;20043;-71
2021/09/18 05:08:26;;;;;;;62.42;36.83;;;;;;;20.90;59.43;98958.13;5082746;28;20016;-71
2021/09/18 05:10:52;;;;;;;41.45;14.55;;;;;;;20.98;59.12;98956.03;5082304;28;20501;-71
2021/09/18 05:13:17;;;;;;;30.38;11.70;;;;;;;21.07;58.92;98952.72;5074262;28;20032;-71
2021/09/18 05:15:43;;;;;;;26.15;11.77;;;;;;;21.21;58.19;98966.00;5081710;28;20023;-71
2021/09/18 05:18:08;;;;;;;28.45;11.18;;;;;;;21.27;58.17;98972.84;5074833;28;20016;-71
2021/09/18 05:20:34;;;;;;;44.13;11.65;;;;;;;21.30;58.33;98974.03;5081623;28;20081;-71
2021/09/18 05:22:59;;;;;;;29.60;10.18;;;;;;;21.26;58.71;98985.44;5074507;28;20016;-71
2021/09/18 05:25:25;;;;;;;34.00;10.82;;;;;;;21.30;58.40;98991.09;5073332;28;20539;-71
2021/09/18 05:27:50;;;;;;;39.28;12.65;;;;;;;21.31;58.11;98987.84;5075552;28;20028;-71
2021/09/18 05:30:16;;;;;;;32.63;11.05;;;;;;;21.31;58.31;98995.56;5072599;28;20498;-71
2021/09/18 05:32:42;;;;;;;30.45;12.32;;;;;;;21.36;58.08;99000.00;5081526;28;20402;-73
2021/09/18 05:35:07;;;;;;;37.50;11.65;;;;;;;21.43;58.02;98999.94;5088653;28;20028;-73
2021/09/18 05:37:33;;;;;;;43.90;11.65;;;;;;;21.41;58.60;98988.97;5090357;28;20146;-73
2021/09/18 05:39:58;;;;;;;44.63;13.32;;;;;;;21.50;58.21;98993.38;5077566;28;20020;-73
2021/09/18 05:42:24;;;;;;;38.08;11.55;;;;;;;21.50;58.57;98997.00;5084652;28;20110;-71
2021/09/18 05:44:49;;;;;;;33.67;11.18;;;;;;;21.51;58.42;98992.94;5086054;28;20099;-71
2021/09/18 05:47:15;;;;;;;40.90;11.50;;;;;;;21.58;58.26;98997.72;5077623;28;20410;-70
2021/09/18 05:49:41;;;;;;;44.08;12.45;;;;;;;21.58;58.39;98995.72;5082965;28;20083;-70
2021/09/18 05:52:06;;;;;;;60.88;14.60;;;;;;;21.67;58.54;98988.75;5086573;28;20028;-70
2021/09/18 05:54:33;;;;;;;39.72;12.18;;;;;;;21.71;58.58;98996.00;5086946;28;20047;-70
2021/09/18 05:56:58;;;;;;;40.90;11.93;;;;;;;21.76;58.55;98991.88;5085716;28;20028;-69
2021/09/18 05:59:24;;;;;;;48.60;10.63;;;;;;;21.79;58.68;98998.78;5084482;28;20035;-69
2021/09/18 06:01:50;;;;;;;85.20;14.48;;;;;;;21.82;58.64;98997.91;5087538;28;20456;-73
2021/09/18 06:04:15;;;;;;;65.53;15.63;;;;;;;21.82;59.39;99012.16;5087113;28;20028;-70
2021/09/18 06:06:41;;;;;;;88.22;14.35;;;;;;;21.81;59.21;99016.22;5083528;28;20056;-70
2021/09/18 06:09:06;;;;;;;41.53;12.40;;;;;;;21.84;59.34;99027.59;5085729;28;20036;-70
2021/09/18 06:11:32;;;;;;;31.08;10.70;;;;;;;21.90;59.36;99018.56;5087598;28;20036;-71
2021/09/18 06:13:57;;;;;;;34.22;10.23;;;;;;;21.86;59.78;99032.88;5087347;28;20462;-69
2021/09/18 06:16:23;;;;;;;46.85;10.55;;;;;;;21.86;60.06;99041.41;5087501;28;20067;-69
2021/09/18 06:18:50;;;;;;;31.63;10.63;;;;;;;21.80;59.77;99045.94;5092721;28;20024;-69
2021/09/18 06:21:16;;;;;;;35.90;22.35;;;;;;;21.77;60.06;99046.78;5090757;28;20027;-70
2021/09/18 06:23:41;;;;;;;65.53;29.67;;;;;;;21.83;59.51;99056.47;5089009;28;20028;-70
2021/09/18 06:26:08;;;;;;;57.10;28.55;;;;;;;21.74;59.57;99066.31;5087495;28;20035;-72
2021/09/18 06:28:34;;;;;;;41.15;19.60;;;;;;;21.86;58.90;99064.97;5091207;28;20028;-73
2021/09/18 06:31:01;;;;;;;26.17;9.45;;;;;;;21.87;58.13;99065.78;5088966;28;20089;-72
2021/09/18 06:33:27;;;;;;;22.95;7.28;;;;;;;21.88;58.16;99076.72;5089410;28;20028;-72
2021/09/18 06:35:52;;;;;;;42.47;8.63;;;;;;;21.86;58.19;99064.19;5080695;28;20031;-71
2021/09/18 06:38:21;;;;;;;29.15;7.95;;;;;;;21.77;58.21;99053.25;5089666;28;20024;-71
2021/09/18 06:40:53;;;;;;;23.80;7.43;;;;;;;21.79;58.22;99061.38;5091633;28;20246;-71
2021/09/18 06:43:20;;;;;;;25.50;8.02;;;;;;;21.82;58.18;99055.66;5081373;28;20452;-71
2021/09/18 06:45:46;;;;;;;28.35;9.02;;;;;;;21.81;58.41;99047.53;5089945;28;20024;-71
2021/09/18 06:48:11;;;;;;;22.17;8.25;;;;;;;21.86;58.64;99041.41;5088177;28;20086;-71
2021/09/18 06:50:38;;;;;;;46.38;20.70;;;;;;;22.04;58.00;99044.06;5087323;28;20032;-71
2021/09/18 06:53:05;;;;;;;23.67;9.75;;;;;;;22.01;58.20;99044.88;5077689;28;20024;-71
2021/09/18 06:55:31;;;;;;;25.50;8.27;;;;;;;22.10;58.20;99048.03;5090871;28;20028;-71
2021/09/18 06:57:56;;;;;;;36.50;15.35;;;;;;;22.21;58.10;99047.09;5085486;28;20023;-71
2021/09/18 07:00:22;;;;;;;31.05;15.32;;;;;;;22.35;57.92;99063.22;5078692;28;20024;-69
2021/09/18 07:02:48;;;;;;;26.38;9.40;;;;;;;22.46;57.90;99058.19;5082699;28;20047;-69
2021/09/18 07:05:13;;;;;;;26.80;8.20;;;;;;;22.51;57.65;99060.59;5084524;28;20032;-69
2021/09/18 07:07:39;;;;;;;21.52;8.23;;;;;;;22.63;57.39;99044.16;5091735;28;20107;-69
2021/09/18 07:10:05;;;;;;;30.52;11.98;;;;;;;22.74;57.15;99061.91;5091423;28;20062;-69
2021/09/18 07:12:31;;;;;;;21.90;11.20;;;;;;;22.83;56.96;99067.91;5091045;28;20020;-71
2021/09/18 07:14:56;;;;;;;24.23;8.52;;;;;;;22.93;56.66;99059.63;5089770;28;20039;-71
2021/09/18 07:17:22;;;;;;;19.80;7.38;;;;;;;23.11;56.11;99034.50;5087684;28;20522;-71
2021/09/18 07:19:47;;;;;;;19.05;7.97;;;;;;;23.34;55.34;99029.25;5084435;28;20103;-72
2021/09/18 07:22:13;;;;;;;28.27;7.57;;;;;;;23.52;54.72;99028.94;5086349;28;20032;-72
2021/09/18 07:24:38;;;;;;;20.20;7.00;;;;;;;23.74;54.31;99028.56;5085038;28;20130;-71
2021/09/18 07:27:04;;;;;;;16.05;6.32;;;;;;;23.80;54.02;99026.81;5084416;28;20028;-70
2021/09/18 07:29:30;;;;;;;20.80;6.50;;;;;;;23.73;54.19;99030.63;5084939;28;20077;-71
2021/09/18 07:31:55;;;;;;;31.95;7.95;;;;;;;23.87;53.53;99026.69;5084714;28;20035;-71
2021/09/18 07:34:21;;;;;;;21.30;8.73;;;;;;;24.08;53.44;99036.09;5084689;28;20043;-71
2021/09/18 07:36:48;;;;;;;22.42;7.90;;;;;;;24.13;52.98;99032.72;5069709;28;20024;-74
2021/09/18 07:39:13;;;;;;;19.60;5.72;;;;;;;24.22;52.82;99030.09;5080513;28;20089;-72
2021/09/18 07:41:40;;;;;;;25.38;6.65;;;;;;;24.23;52.20;99020.28;5085437;28;20020;-72
2021/09/18 07:44:07;;;;;;;21.15;7.65;;;;;;;24.31;52.57;99028.72;5078554;28;20473;-71
2021/09/18 07:46:32;;;;;;;17.85;6.22;;;;;;;24.49;50.92;99023.41;5084919;28;20153;-71
2021/09/18 07:48:58;;;;;;;18.88;7.18;;;;;;;24.48;50.53;99029.56;5089642;28;20127;-71
2021/09/18 07:51:24;;;;;;;21.48;7.25;;;;;;;24.44;50.26;99023.94;5087875;28;20035;-71
2021/09/18 07:53:49;;;;;;;24.35;10.25;;;;;;;24.53;49.96;99035.56;5084101;28;20040;-70
2021/09/18 07:56:16;;;;;;;30.20;14.23;;;;;;;24.80;49.37;99036.66;5088373;28;20028;-71
2021/09/18 07:58:41;;;;;;;59.20;13.52;;;;;;;24.90;49.25;99032.72;5085579;28;20059;-69
2021/09/18 08:01:07;;;;;;;27.67;9.23;;;;;;;24.82;48.19;99031.31;5087683;28;20082;-71
2021/09/18 08:03:32;;;;;;;23.60;6.50;;;;;;;24.89;48.67;99021.75;5086695;28;20127;-71
2021/09/18 08:05:57;;;;;;;21.15;6.88;;;;;;;24.89;49.25;99016.03;5086355;28;20659;-72
2021/09/18 08:08:23;;;;;;;22.90;6.78;;;;;;;24.98;48.65;99001.09;5085754;28;20020;-70
2021/09/18 08:10:48;;;;;;;27.20;7.65;;;;;;;24.98;48.40;98992.53;5086791;28;20114;-70
2021/09/18 08:13:14;;;;;;;19.30;6.32;;;;;;;24.90;48.74;98997.63;5084660;28;20028;-71
2021/09/18 08:15:39;;;;;;;18.00;6.22;;;;;;;24.96;47.76;99001.53;5089977;28;20028;-70
2021/09/18 08:18:05;;;;;;;24.02;6.53;;;;;;;24.86;48.33;99002.59;5089872;28;20475;-71
2021/09/18 08:20:31;;;;;;;26.13;6.40;;;;;;;25.04;48.54;98997.28;5087934;28;20032;-72
2021/09/18 08:22:56;;;;;;;21.08;6.03;;;;;;;25.16;47.96;98997.81;5089053;28;20016;-71
2021/09/18 08:25:22;;;;;;;17.02;5.70;;;;;;;25.18;48.73;99003.88;5090487;28;20027;-71
2021/09/18 08:27:47;;;;;;;18.27;5.93;;;;;;;25.06;49.65;98991.91;5088521;28;20024;-71
2021/09/18 08:30:14;;;;;;;35.72;7.85;;;;;;;25.23;49.45;98994.78;5090759;28;20035;-71
2021/09/18 08:32:40;;;;;;;20.02;6.28;;;;;;;25.18;49.75;98993.25;5085878;28;20016;-71
2021/09/18 08:35:06;;;;;;;14.68;6.38;;;;;;;25.12;49.55;98986.44;5082980;28;20025;-71
2021/09/18 08:37:32;;;;;;;15.27;5.95;;;;;;;25.16;50.01;98974.91;5083644;28;20066;-72
2021/09/18 08:39:57;;;;;;;21.55;6.47;;;;;;;25.27;49.82;98969.72;5090017;28;20099;-71
2021/09/18 08:42:24;;;;;;;17.17;7.13;;;;;;;25.37;50.04;98971.50;5089553;28;20387;-71
2021/09/18 08:44:49;;;;;;;16.75;6.63;;;;;;;25.31;50.23;98970.44;5075600;28;20024;-72
2021/09/18 08:47:15;;;;;;;17.13;6.80;;;;;;;25.27;50.70;98958.28;5073193;28;20027;-71
2021/09/18 08:49:42;;;;;;;21.60;6.65;;;;;;;25.39;50.29;98962.44;5084459;28;20114;-71
2021/09/18 08:52:07;;;;;;;20.27;7.28;;;;;;;25.41;50.14;98973.47;5080335;28;20024;-71
2021/09/18 08:54:39;;;;;;;24.83;6.43;;;;;;;25.45;50.07;98979.88;5085534;28;20515;-71
2021/09/18 08:57:05;;;;;;;28.02;6.97;;;;;;;25.46;49.75;98967.19;5078674;28;20028;-71
2021/09/18 08:59:30;;;;;;;26.83;6.28;;;;;;;25.43;50.30;98966.03;5088706;28;20081;-71
2021/09/18 09:02:18;;;;;;;76.18;9.45;;;;;;;25.49;49.16;98966.34;5087463;28;20132;-71
2021/09/18 09:04:45;;;;;;;24.80;7.30;;;;;;;25.47;49.62;98972.47;5082881;28;20402;-73
2021/09/18 09:07:13;;;;;;;21.73;8.82;;;;;;;25.46;49.40;98976.59;5075641;28;20079;-72
2021/09/18 09:10:08;;;;;;;25.30;6.03;;;;;;;25.58;48.48;98965.69;5080137;28;20118;-72
2021/09/18 09:12:38;;;;;;;17.00;6.57;;;;;;;25.56;49.18;98959.59;5065203;28;20063;-70
2021/09/18 09:15:07;;;;;;;19.05;7.03;;;;;;;25.58;48.76;98954.22;5078794;28;20130;-71
2021/09/18 09:17:36;;;;;;;15.07;6.20;;;;;;;25.58;49.35;98952.19;5076958;28;20025;-71
2021/09/18 09:20:03;;;;;;;17.38;6.57;;;;;;;25.67;48.32;98948.66;5078834;28;20028;-71
2021/09/18 09:22:42;;;;;;;29.60;6.97;;;;;;;25.79;48.12;98944.22;5082677;28;20028;-70
2021/09/18 09:25:37;;;;;;;22.50;6.97;;;;;;;25.97;48.66;98946.56;5077249;28;20570;-71
2021/09/18 09:28:33;;;;;;;14.80;6.00;;;;;;;26.10;47.02;98940.06;5068671;28;20446;-72
2021/09/18 09:31:14;;;;;;;17.50;5.72;;;;;;;26.20;45.89;98942.66;5058406;28;20085;-73
2021/09/18 09:34:03;;;;;;;15.52;5.93;;;;;;;26.54;45.68;98943.25;5090177;28;20471;-70
2021/09/18 09:36:38;;;;;;;18.92;4.97;;;;;;;26.58;45.29;98946.81;5087613;28;20036;-70
2021/09/18 09:39:06;;;;;;;12.73;5.65;;;;;;;26.79;43.95;98941.66;5079144;28;20024;-70
2021/09/18 09:41:41;;;;;;;12.07;5.22;;;;;;;26.93;44.49;98933.88;5075369;28;20123;-70
2021/09/18 09:44:18;;;;;;;15.52;5.18;;;;;;;27.06;42.96;98926.03;5072829;28;20414;-70
2021/09/18 09:47:21;;;;;;;14.30;4.38;;;;;;;27.19;43.26;98935.41;5085770;28;20052;-70
2021/09/18 09:49:55;;;;;;;18.15;4.82;;;;;;;27.17;43.12;98934.28;5075246;28;20031;-71
2021/09/18 09:52:35;;;;;;;15.90;4.63;;;;;;;27.05;43.06;98919.50;5082048;28;20383;-71
2021/09/18 09:55:09;;;;;;;9.57;5.07;;;;;;;27.01;43.27;98926.63;5081386;28;20094;-70
2021/09/18 09:57:35;;;;;;;7.20;4.00;;;;;;;26.82;43.87;98934.19;5079113;28;20510;-70
2021/09/18 10:00:04;;;;;;;11.63;4.18;;;;;;;26.77;43.89;98939.22;5082963;28;20028;-70
2021/09/18 10:02:30;;;;;;;16.85;5.60;;;;;;;26.73;44.21;98938.56;5086650;28;20068;-70
2021/09/18 10:04:55;;;;;;;22.17;4.50;;;;;;;26.72;43.25;98954.16;5081320;28;20067;-70
2021/09/18 10:07:21;;;;;;;14.40;4.72;;;;;;;26.64;43.16;98952.78;5091742;28;20028;-70
2021/09/18 10:09:47;;;;;;;19.33;4.30;;;;;;;26.54;44.21;98951.06;5092297;28;20080;-70
2021/09/18 10:12:14;;;;;;;23.10;5.13;;;;;;;26.43;44.67;98952.22;5092242;28;20026;-70
2021/09/18 10:14:46;;;;;;;14.23;4.35;;;;;;;26.38;45.15;98952.75;5082616;28;20067;-70
2021/09/18 10:17:12;;;;;;;8.73;4.32;;;;;;;26.30;45.65;98949.31;5085981;28;20534;-70
2021/09/18 10:24:49;;;;;;;18.77;4.40;;;;;;;26.29;46.36;98938.31;5083429;28;20179;-71
2021/09/18 10:27:26;;;;;;;7.93;4.07;;;;;;;26.18;46.45;98910.78;5088555;28;20040;-71
2021/09/18 10:29:52;;;;;;;13.55;4.13;;;;;;;26.29;45.95;98910.47;5092954;28;20024;-71
2021/09/18 10:32:20;;;;;;;13.95;4.95;;;;;;;26.19;46.88;98914.44;5089196;28;20084;-70
2021/09/18 10:34:45;;;;;;;10.93;5.38;;;;;;;26.25;46.72;98921.25;5080663;28;20036;-70
2021/09/18 10:37:34;;;;;;;18.67;5.32;;;;;;;26.15;46.01;98916.59;5085673;28;20032;-72
2021/09/18 10:40:07;;;;;;;21.67;5.05;;;;;;;26.35;45.35;98925.03;5082602;28;20032;-70
2021/09/18 10:42:35;;;;;;;11.65;6.22;;;;;;;26.36;45.67;98923.75;5081491;28;20488;-70
2021/09/18 10:45:01;;;;;;;13.05;5.03;;;;;;;26.33;45.55;98927.56;5081856;28;20138;-70
2021/09/18 10:47:47;;;;;;;11.02;4.65;;;;;;;26.53;45.72;98933.06;5082017;28;20031;-70
2021/09/18 10:50:22;;;;;;;19.40;5.72;;;;;;;26.59;45.61;98921.81;5088857;28;20020;-71
2021/09/18 10:53:18;;;;;;;11.23;4.63;;;;;;;26.65;45.59;98919.19;5082938;28;20055;-71
2021/09/18 10:56:05;;;;;;;13.25;4.70;;;;;;;26.84;45.05;98908.72;5077180;28;20090;-70
2021/09/18 10:58:31;;;;;;;12.02;5.93;;;;;;;26.99;45.25;98904.13;5087974;28;20453;-71
2021/09/18 11:00:59;;;;;;;13.35;5.93;;;;;;;27.19;44.32;98911.66;5087465;28;20035;-71
2021/09/18 11:03:36;;;;;;;13.07;5.78;;;;;;;27.35;43.53;98915.63;5087777;28;20398;-71
2021/09/18 11:06:02;;;;;;;27.15;5.90;;;;;;;27.42;43.67;98924.00;5087686;28;20028;-70
2021/09/18 11:08:30;;;;;;;19.92;6.70;;;;;;;27.23;44.26;98920.16;5077620;28;20032;-70
2021/09/18 11:10:59;;;;;;;14.27;5.85;;;;;;;27.25;44.24;98927.03;5085322;28;20035;-70
2021/09/18 11:13:36;;;;;;;13.50;6.28;;;;;;;27.25;44.20;98921.28;5078134;28;20020;-70
2021/09/18 11:16:23;;;;;;;22.27;7.35;;;;;;;27.14;44.89;98926.59;5084668;28;20054;-70
2021/09/18 11:19:02;;;;;;;52.90;19.90;;;;;;;27.07;44.60;98918.25;5087044;28;20028;-70
2021/09/18 11:21:34;;;;;;;32.25;11.93;;;;;;;27.12;44.75;98926.25;5074499;28;20034;-71
2021/09/18 11:24:22;;;;;;;20.92;7.97;;;;;;;26.96;44.71;98938.66;5088220;28;20032;-69
2021/09/18 11:26:55;;;;;;;18.83;5.68;;;;;;;26.93;44.33;98933.88;5091404;28;20123;-70